Airfield :
LOGIN :

Register | Disclaimer

   EN    FR    IT 

 










Legend :    VFR   Marginal VFR   IFR   Intensive IFR   Very Intensive IFR
Visi :
Ceiling :
>= 8 km
>= 3000ft
5 to 8 km
1000 to 3000 ft
1500m to 5 km
500 to 1000 ft
800 to 1500m
200 to 500 ft
< 800m
< 200 ft
Symbols :   Thunderstorms  Fog  Heavy snow  Heavy precipitations  Wind > 20 kt
SIGMETs :     Misc.  Thunderstorms  Icing  Turbulence  Mountain Waves  Volcanic Ashes






- Airport Elevation : 72 ft
- IATA code : UDE


EHVK - Volkel Airbase

CURRENT METAR :
  • 200651Z AUTO 22003KT 0350 FZFG OVC000 M01/M01 Q1047 RED 22003KT 0300 FZFG OVC000

EXPIRED METARs :
  • 200625Z AUTO 24002KT 0450 FZFG OVC000 M01/M02 Q1047 RED
  • 200555Z AUTO 24002KT 0550 FZFG OVC000 M01/M01 Q1047 RED
  • 200525Z AUTO 23002KT 0300 FZFG OVC000 M01/M01 Q1047 RED
  • 200455Z AUTO 28001KT 0300 FZFG OVC000 M01/M01 Q1047 RED
  • 200425Z AUTO 20001KT 0200 FZFG OVC000 M01/M01 Q1047 RED

TAF TAF EHVK
Valid from the 20 at 06:00 until the 20 at 18:00 UTC


200538Z 2006/2018 VRB02KT 0300 FG FZFG
BECMG 2009/2012 20004KT 7000 NSW
PROB30
TEMPO 2009/2013 4000 BR BKN005



MET'MAP, your aeronautical weather chart ! - Copyright ORBIFLY December 2007 - Disclaimer

ORBIFLY MET'MAP TEAM :

Programming & Development : Alexandra Zaïnal
Concept & original design : Baudouin d'Aumeries
Assistance for programming : Marc-Olivier Méhu
Technical & hardware support : Manuel Goepfert

Contact : metmap@orbifly.com




SOURCES & CREDITS :

   NOAA